Impacts TAF Board
For situational awareness. Not to be used for flight planning purposes.
IDs:

CYVR - Vancouver Intl, BC, CN

Issued at 1138 UTC 07 Jul 2020
Updated at 1345 UTC 07 Jul 2020
Potential Impact None Slight Moderate High
Time1300Z 07/14Z 07/15Z 07/16Z 07/17Z 07/18Z 07/19Z 07/20Z 07/21Z 07/22Z 07/23Z 08/00Z 08/01Z 08/02Z>>
Type OBS PRVL
  [TEMP]  
PRVL
  [TEMP]  
PRVL
  [TEMP]  
PRVL
  [TEMP]  
PRVL
  [TEMP]  
PRVL
  [TEMP]  
PRVL
  [TEMP]  
PRVL
  [TEMP]  
PRVL
  [TEMP]  
PRVL
  [TEMP]  
PRVL
  [TEMP]  
PRVL
  [TEMP]  
PRVL
  [TEMP]  
VIS 15 >6
  [6.21]  
>6
  [6.21]  
>6
  [6.21]  
>6
  [6.21]  
>6
  [6.21]  
>6
  [6.21]  
>6 >6 >6 >6 >6 >6 >6
CIG 53 50
  [50]  
50
  [50]  
50
  [50]  
50
  [50]  
50
  [50]  
50
  [50]  
50
  [50]  
50
  [50]  
50
  [50]  
50
  [50]  
50
  [50]  
50
  [50]  
50
  [50]  
Cover BKN BKN
  [BKN]  
BKN
  [BKN]  
BKN
  [BKN]  
BKN
  [BKN]  
BKN
  [BKN]  
BKN
  [BKN]  
BKN
  [SCT]  
BKN
  [SCT]  
BKN
  [SCT]  
BKN
  [SCT]  
BKN
  [SCT]  
BKN
  [SCT]  
BKN
  [SCT]  
FltCat VFR VFR
  [VFR]  
VFR
  [VFR]  
VFR
  [VFR]  
VFR
  [VFR]  
VFR
  [VFR]  
VFR
  [VFR]  
VFR
  [VFR]  
VFR
  [VFR]  
VFR
  [VFR]  
VFR
  [VFR]  
VFR
  [VFR]  
VFR
  [VFR]  
VFR
  [VFR]  
WX -- --
  [-SHRA]  
--
  [-SHRA]  
--
  [-SHRA]  
--
  [-SHRA]  
--
  [-SHRA]  
--
  [-SHRA]  
--
  [--]  
--
  [--]  
--
  [--]  
--
  [--]  
--
  [--]  
--
  [--]  
--
  [--]  
WDir 100 90
[90]
90
[90]
90
[90]
90
[90]
90
[90]
90
[90]
120
[120]
120
[120]
120
[120]
120
[120]
180
[180]
180
[180]
180
[180]
WSpd 13 10
  [10]  
10
  [10]  
10
  [10]  
10
  [10]  
10
  [10]  
10
  [10]  
10
  [10]  
10
  [10]  
10
  [10]  
10
  [10]  
6
  [6]  
6
  [6]  
6
  [6]  
WGst -- --
  [--]  
--
  [--]  
--
  [--]  
--
  [--]  
--
  [--]  
--
  [--]  
--
  [--]  
--
  [--]  
--
  [--]  
--
  [--]  
--
  [--]  
--
  [--]  
--
  [--]  
Raw TAF
TAF CYVR 071138Z 0712/0818 09010KT P6SM BKN050
  TEMPO 0712/0720 P6SM -SHRA
  FM072000 12010KT P6SM BKN050
  TEMPO 0720/0804 SCT050
  BECMG 0800/0802 18006KT
  FM080400 08005KT P6SM SCT020 BKN040
  BECMG 0816/0818 14010KT RMK NXT FCST BY 071500Z


Raw METAR
CYVR 071300Z 10013KT 15SM FEW029 BKN053 BKN075 14/10 A3000 RMK SC1SC5AC1 CU ASOCTD SW SLP159
CYVR 071200Z 10010KT 15SM BKN050 BKN061 OVC080 14/10 A2998 RMK SC6SC1AC1 SLP154
CYVR 071100Z 09011KT 15SM BKN048 BKN058 OVC080 15/11 A2998 RMK SC5SC2AC1 SLP152

METAR Board
Radar Display
Forecast Discussion
For situational awareness. Not to be used for flight planning purposes.